Time;durP1;ratioP1;P1;durP2;ratioP2;P2;SDS_P1;SDS_P2;PMS_P1;PMS_P2;Temp;Humidity;BMP_temperature;BMP_pressure;BME280_temperature;BME280_humidity;BME280_pressure;Samples;Min_cycle;Max_cycle;Signal;HPM_P1;HPM_P2
2022/08/07 00:01:37;;;;;;;4.53;2.80;;;15.40;99.90;;;;;;5075103;28;20621;-64
2022/08/07 00:04:03;;;;;;;3.67;2.30;;;15.50;99.90;;;;;;5074148;28;20173;-64
2022/08/07 00:06:29;;;;;;;2.63;2.43;;;15.40;99.90;;;;;;5074023;28;20164;-65
2022/08/07 00:08:55;;;;;;;3.57;2.30;;;15.30;99.90;;;;;;5074082;28;20420;-65
2022/08/07 00:11:20;;;;;;;4.03;2.73;;;15.30;99.90;;;;;;5074201;28;20171;-64
2022/08/07 00:13:46;;;;;;;3.63;2.57;;;15.30;99.90;;;;;;5074017;28;20640;-65
2022/08/07 00:16:12;;;;;;;2.90;2.30;;;15.40;99.90;;;;;;5073761;28;20174;-65
2022/08/07 00:18:38;;;;;;;5.70;2.67;;;15.40;99.90;;;;;;5073909;28;20455;-65
2022/08/07 00:21:06;;;;;;;2.87;2.40;;;15.40;99.90;;;;;;5074060;28;20413;-64
2022/08/07 00:23:33;;;;;;;4.37;2.63;;;15.30;99.90;;;;;;5073672;28;20404;-63
2022/08/07 00:26:01;;;;;;;2.43;2.00;;;15.30;99.90;;;;;;5073621;28;20404;-65
2022/08/07 00:28:30;;;;;;;3.10;2.80;;;15.20;99.90;;;;;;5073693;28;20483;-65
2022/08/07 00:30:56;;;;;;;2.43;2.20;;;15.20;99.90;;;;;;5074029;28;20455;-65
2022/08/07 00:33:25;;;;;;;4.13;3.83;;;15.30;99.90;;;;;;5073748;28;20436;-65
2022/08/07 00:35:52;;;;;;;2.40;2.20;;;15.20;99.90;;;;;;5073248;28;20175;-65
2022/08/07 00:38:18;;;;;;;2.80;2.60;;;15.10;99.90;;;;;;5073703;28;20459;-65
2022/08/07 00:40:43;;;;;;;4.03;2.73;;;15.00;99.90;;;;;;5073543;28;20522;-65
2022/08/07 00:43:11;;;;;;;2.30;2.10;;;15.00;99.90;;;;;;5073572;28;20172;-64
2022/08/07 00:45:40;;;;;;;5.00;2.33;;;15.00;99.90;;;;;;5073036;28;20174;-65
2022/08/07 00:48:07;;;;;;;5.43;2.90;;;15.00;99.90;;;;;;5073544;28;20408;-64
2022/08/07 00:50:33;;;;;;;4.33;2.30;;;14.90;99.90;;;;;;5073205;28;20515;-64
2022/08/07 00:52:59;;;;;;;4.27;3.10;;;14.90;99.90;;;;;;5073408;28;20404;-64
2022/08/07 00:55:25;;;;;;;2.53;2.33;;;14.80;99.90;;;;;;5072759;28;20921;-64
2022/08/07 00:57:51;;;;;;;2.87;1.97;;;14.90;99.90;;;;;;5073266;28;20777;-64
2022/08/07 01:00:17;;;;;;;2.80;2.03;;;14.80;99.90;;;;;;5073434;28;20202;-64
2022/08/07 01:02:44;;;;;;;2.53;2.33;;;14.80;99.90;;;;;;5073216;28;20315;-64
2022/08/07 01:05:11;;;;;;;3.07;2.77;;;14.80;99.90;;;;;;5072582;28;20423;-64
2022/08/07 01:07:36;;;;;;;4.10;2.53;;;14.80;99.90;;;;;;5073038;28;20417;-65
2022/08/07 01:10:02;;;;;;;3.17;2.87;;;14.80;99.90;;;;;;5072844;28;20798;-64
2022/08/07 01:12:29;;;;;;;5.47;2.53;;;14.70;99.90;;;;;;5073016;28;20570;-63
2022/08/07 01:14:57;;;;;;;2.40;2.20;;;14.70;99.90;;;;;;5072517;28;20170;-64
2022/08/07 01:17:23;;;;;;;2.20;2.00;;;14.70;99.90;;;;;;5072865;28;20486;-64
2022/08/07 01:19:50;;;;;;;2.87;1.50;;;14.80;99.90;;;;;;5072492;28;20424;-64
2022/08/07 01:22:16;;;;;;;2.87;1.47;;;14.70;99.90;;;;;;5072793;28;20546;-64
2022/08/07 01:24:43;;;;;;;3.10;2.10;;;14.70;99.90;;;;;;5072747;28;20482;-64
2022/08/07 01:27:09;;;;;;;2.60;2.20;;;14.60;99.90;;;;;;5072926;28;20408;-63
2022/08/07 01:29:35;;;;;;;3.10;2.03;;;14.70;99.90;;;;;;5072511;28;20987;-65
2022/08/07 01:32:00;;;;;;;2.93;2.27;;;14.70;99.90;;;;;;5072602;28;20178;-65
2022/08/07 01:34:30;;;;;;;3.27;2.20;;;14.80;99.90;;;;;;5069067;28;20463;-64
2022/08/07 01:36:56;;;;;;;2.10;1.93;;;14.70;99.90;;;;;;5072029;28;20206;-65
2022/08/07 01:39:21;;;;;;;2.50;2.03;;;14.70;99.90;;;;;;5072222;28;20421;-64
2022/08/07 01:41:47;;;;;;;2.27;2.07;;;14.70;99.90;;;;;;5072356;28;20189;-65
2022/08/07 01:44:14;;;;;;;2.13;1.70;;;14.60;99.90;;;;;;5072149;28;20231;-65
2022/08/07 01:46:40;;;;;;;2.00;1.90;;;14.50;99.90;;;;;;5071945;28;20412;-65
2022/08/07 01:49:06;;;;;;;5.00;2.33;;;14.50;99.90;;;;;;5071971;28;21021;-64
2022/08/07 01:51:34;;;;;;;2.73;2.07;;;14.40;99.90;;;;;;5072478;28;20428;-64
2022/08/07 01:54:03;;;;;;;3.60;2.30;;;14.50;99.90;;;;;;5071951;28;20235;-64
2022/08/07 01:56:37;;;;;;;4.03;2.40;;;14.60;99.90;;;;;;5071483;28;20475;-64
2022/08/07 01:59:16;;;;;;;2.07;1.87;;;14.60;99.90;;;;;;5071787;28;20475;-64
2022/08/07 02:01:47;;;;;;;4.03;2.50;;;14.50;99.90;;;;;;5072134;28;20865;-64
2022/08/07 02:04:26;;;;;;;4.80;1.93;;;14.40;99.90;;;;;;5071790;28;20439;-64
2022/08/07 02:06:55;;;;;;;2.20;2.00;;;14.30;99.90;;;;;;5071635;28;20828;-65
2022/08/07 02:09:22;;;;;;;2.50;2.00;;;14.40;99.90;;;;;;5071574;28;20433;-64
2022/08/07 02:11:49;;;;;;;2.27;2.07;;;14.40;99.90;;;;;;5072141;28;20447;-65
2022/08/07 02:14:17;;;;;;;3.27;2.37;;;14.40;99.90;;;;;;5071910;28;20416;-65
2022/08/07 02:16:44;;;;;;;2.13;1.90;;;14.30;99.90;;;;;;5071409;28;20452;-65
2022/08/07 02:19:13;;;;;;;2.50;1.70;;;14.20;99.90;;;;;;5071546;28;20429;-65
2022/08/07 02:21:40;;;;;;;2.13;1.93;;;14.20;99.90;;;;;;5071540;28;20412;-65
2022/08/07 02:24:06;;;;;;;3.07;2.33;;;14.20;99.90;;;;;;5071501;28;20404;-64
2022/08/07 02:26:34;;;;;;;2.40;2.13;;;14.20;99.90;;;;;;5071271;28;20404;-64
2022/08/07 02:29:03;;;;;;;2.30;2.07;;;14.10;99.90;;;;;;5071447;28;20747;-65
2022/08/07 02:31:30;;;;;;;2.47;2.07;;;14.10;99.90;;;;;;5071584;28;20905;-66
2022/08/07 02:33:58;;;;;;;3.03;2.20;;;14.10;99.90;;;;;;5071194;28;20404;-64
2022/08/07 02:36:26;;;;;;;2.37;2.17;;;14.20;99.90;;;;;;5070860;28;20546;-64
2022/08/07 02:38:53;;;;;;;2.00;1.90;;;14.10;99.90;;;;;;5071133;28;20431;-64
2022/08/07 02:41:20;;;;;;;2.80;2.23;;;14.10;99.90;;;;;;5071345;28;20891;-64
2022/08/07 02:43:48;;;;;;;3.67;2.10;;;14.10;99.90;;;;;;5071467;28;20494;-64
2022/08/07 02:46:17;;;;;;;2.63;1.97;;;14.00;99.90;;;;;;5070569;28;20441;-64
2022/08/07 02:48:42;;;;;;;4.83;2.00;;;14.10;99.90;;;;;;5070620;28;20425;-64
2022/08/07 02:51:12;;;;;;;1.93;1.73;;;14.00;99.90;;;;;;5071188;28;20922;-65
2022/08/07 02:53:40;;;;;;;2.03;1.83;;;14.00;99.90;;;;;;5071261;28;20169;-63
2022/08/07 02:56:10;;;;;;;1.73;1.47;;;14.00;99.90;;;;;;5070635;28;20875;-64
2022/08/07 02:58:36;;;;;;;2.33;1.90;;;14.00;99.90;;;;;;5070781;28;20424;-64
2022/08/07 03:01:03;;;;;;;1.80;1.70;;;13.90;99.90;;;;;;5071440;28;20929;-64
2022/08/07 03:03:32;;;;;;;2.37;2.17;;;13.90;99.90;;;;;;5070887;28;20952;-64
2022/08/07 03:05:59;;;;;;;2.30;2.10;;;13.90;99.90;;;;;;5070416;28;20396;-64
2022/08/07 03:08:25;;;;;;;1.70;1.60;;;13.90;99.90;;;;;;5070908;28;20971;-64
2022/08/07 03:10:51;;;;;;;2.60;2.30;;;13.80;99.90;;;;;;5071073;28;20405;-65
2022/08/07 03:13:17;;;;;;;2.20;2.00;;;13.80;99.90;;;;;;5070987;28;20400;-64
2022/08/07 03:15:44;;;;;;;4.27;2.43;;;13.80;99.90;;;;;;5070624;28;20397;-64
2022/08/07 03:18:11;;;;;;;2.50;1.97;;;13.70;99.90;;;;;;5070917;28;21005;-65
2022/08/07 03:20:38;;;;;;;2.40;2.20;;;13.70;99.90;;;;;;5070728;28;20438;-64
2022/08/07 03:23:06;;;;;;;3.80;2.00;;;13.70;99.90;;;;;;5070917;28;20401;-65
2022/08/07 03:25:34;;;;;;;2.20;2.00;;;13.70;99.90;;;;;;5070451;28;20495;-64
2022/08/07 03:28:01;;;;;;;2.67;1.87;;;13.70;99.90;;;;;;5070891;28;20412;-65
2022/08/07 03:30:28;;;;;;;2.20;2.00;;;13.70;99.90;;;;;;5070624;28;20485;-65
2022/08/07 03:32:55;;;;;;;2.00;1.80;;;13.80;99.90;;;;;;5070852;28;20415;-65
2022/08/07 03:35:24;;;;;;;4.30;1.73;;;13.90;99.90;;;;;;5070302;28;20818;-64
2022/08/07 03:37:55;;;;;;;2.70;2.00;;;13.90;99.90;;;;;;5070689;28;20456;-65
2022/08/07 03:40:22;;;;;;;2.27;1.70;;;14.00;99.90;;;;;;5070809;28;20828;-65
2022/08/07 03:42:52;;;;;;;2.37;2.10;;;14.00;99.90;;;;;;5070860;28;20397;-65
2022/08/07 03:45:20;;;;;;;1.90;1.70;;;13.90;99.90;;;;;;5070388;28;20400;-64
2022/08/07 03:47:45;;;;;;;1.47;1.37;;;13.90;99.90;;;;;;5070412;28;20400;-64
2022/08/07 03:50:11;;;;;;;3.00;2.70;;;13.90;99.90;;;;;;5070971;28;20423;-64
2022/08/07 03:52:37;;;;;;;2.23;2.03;;;13.80;99.90;;;;;;5071278;28;20165;-64
2022/08/07 03:55:04;;;;;;;2.30;2.03;;;13.80;99.90;;;;;;5070312;28;20257;-64
2022/08/07 03:57:31;;;;;;;2.30;2.10;;;13.80;99.90;;;;;;5070498;28;20451;-64
2022/08/07 03:59:57;;;;;;;3.43;1.90;;;13.80;99.90;;;;;;5073693;28;20589;-64
2022/08/07 04:02:23;;;;;;;1.73;1.40;;;13.80;99.90;;;;;;5074334;28;20495;-64
2022/08/07 04:04:49;;;;;;;1.87;1.73;;;13.80;99.90;;;;;;5072248;28;20492;-64
2022/08/07 04:07:18;;;;;;;5.07;1.83;;;13.90;99.90;;;;;;5074431;28;20491;-64
2022/08/07 04:09:48;;;;;;;2.00;1.83;;;13.90;99.90;;;;;;5074333;28;20432;-64
2022/08/07 04:12:15;;;;;;;3.60;1.60;;;13.90;99.90;;;;;;5074535;28;20405;-63
2022/08/07 04:14:41;;;;;;;3.17;2.43;;;14.00;99.90;;;;;;5074619;28;20401;-65
2022/08/07 04:17:07;;;;;;;4.90;1.93;;;14.00;99.90;;;;;;5074255;28;20459;-64
2022/08/07 04:19:34;;;;;;;2.03;1.83;;;14.00;99.90;;;;;;5073609;28;20428;-64
2022/08/07 04:22:00;;;;;;;1.97;1.87;;;14.00;99.90;;;;;;5073937;28;20400;-64
2022/08/07 04:24:27;;;;;;;4.00;2.70;;;14.10;99.90;;;;;;5073705;28;20484;-64
2022/08/07 04:26:52;;;;;;;2.80;2.13;;;14.20;99.90;;;;;;5073441;28;21250;-64
2022/08/07 04:29:18;;;;;;;2.10;1.90;;;14.20;99.90;;;;;;5073556;28;20428;-64
2022/08/07 04:31:43;;;;;;;2.57;1.80;;;14.30;99.90;;;;;;5073794;28;20174;-64
2022/08/07 04:34:09;;;;;;;2.73;2.20;;;14.40;99.90;;;;;;5073440;28;20536;-64
2022/08/07 04:36:35;;;;;;;2.60;2.40;;;14.50;99.90;;;;;;5073290;28;20261;-64
2022/08/07 04:39:02;;;;;;;2.47;2.17;;;14.60;99.90;;;;;;5073512;28;20233;-64
2022/08/07 04:41:28;;;;;;;2.13;2.00;;;14.60;99.90;;;;;;5073514;28;20166;-64
2022/08/07 04:43:55;;;;;;;2.57;2.07;;;14.70;99.90;;;;;;5073385;28;20428;-64
2022/08/07 04:46:46;;;;;;;2.10;1.90;;;14.80;99.90;;;;;;5074121;28;20171;-64
2022/08/07 04:49:15;;;;;;;2.77;2.27;;;14.90;99.90;;;;;;5073052;28;20416;-64
2022/08/07 04:51:55;;;;;;;4.07;2.30;;;15.00;99.90;;;;;;5073237;28;20389;-64
2022/08/07 04:54:43;;;;;;;6.70;2.23;;;15.10;99.90;;;;;;5073219;28;20429;-64
2022/08/07 04:57:21;;;;;;;4.90;2.60;;;15.20;99.90;;;;;;5073134;28;20453;-64
2022/08/07 04:59:58;;;;;;;2.63;2.43;;;15.30;99.90;;;;;;5073441;28;20461;-64
2022/08/07 05:02:31;;;;;;;3.00;1.87;;;15.40;99.90;;;;;;5073461;28;20408;-64
2022/08/07 05:05:10;;;;;;;3.40;2.30;;;15.50;99.90;;;;;;5072496;28;20450;-64
2022/08/07 05:07:55;;;;;;;3.20;2.10;;;15.60;99.90;;;;;;5073263;28;20460;-64
2022/08/07 05:10:27;;;;;;;6.50;2.10;;;15.60;99.90;;;;;;5071952;28;20926;-65
2022/08/07 05:12:55;;;;;;;5.00;2.47;;;15.70;99.90;;;;;;5073870;28;20405;-65
2022/08/07 05:15:25;;;;;;;3.70;1.60;;;15.90;99.90;;;;;;5073045;28;20406;-65
2022/08/07 05:18:01;;;;;;;2.50;1.80;;;16.00;99.90;;;;;;5073019;28;20456;-64
2022/08/07 05:20:40;;;;;;;2.60;2.23;;;16.10;99.90;;;;;;5073316;28;20429;-66
2022/08/07 05:23:15;;;;;;;2.40;1.83;;;16.60;99.90;;;;;;5073285;28;20406;-66
2022/08/07 05:25:42;;;;;;;2.77;1.80;;;17.20;99.90;;;;;;5054978;28;20405;-67
2022/08/07 05:28:09;;;;;;;3.93;1.60;;;17.80;99.90;;;;;;5073485;28;20785;-65
2022/08/07 05:30:36;;;;;;;1.60;1.47;;;18.40;99.90;;;;;;5072945;28;20457;-65
2022/08/07 05:33:04;;;;;;;1.40;1.30;;;19.00;99.90;;;;;;5070428;28;20439;-65
2022/08/07 05:35:31;;;;;;;7.30;1.50;;;19.50;99.90;;;;;;5072163;28;20415;-65
2022/08/07 05:37:59;;;;;;;2.00;1.50;;;19.90;99.90;;;;;;5072813;28;20445;-64
2022/08/07 05:40:25;;;;;;;4.40;1.80;;;19.70;99.90;;;;;;5072859;28;20442;-65
2022/08/07 05:42:51;;;;;;;1.90;1.70;;;20.00;99.40;;;;;;5072881;28;20899;-65
2022/08/07 05:45:19;;;;;;;2.77;1.60;;;20.60;98.70;;;;;;5072419;28;20750;-65
2022/08/07 05:47:45;;;;;;;2.20;2.00;;;20.00;98.30;;;;;;5072624;28;20402;-65
2022/08/07 05:50:11;;;;;;;2.17;1.80;;;20.60;97.90;;;;;;5072330;28;20446;-65
2022/08/07 05:52:37;;;;;;;2.50;2.27;;;20.40;96.50;;;;;;5072822;28;20293;-64
2022/08/07 05:55:03;;;;;;;1.77;1.60;;;21.10;96.80;;;;;;5072326;28;20916;-65
2022/08/07 05:57:30;;;;;;;1.93;1.63;;;21.60;94.90;;;;;;5072537;28;20209;-65
2022/08/07 05:59:57;;;;;;;2.47;1.70;;;22.30;92.70;;;;;;5072129;28;20444;-65
2022/08/07 06:02:26;;;;;;;1.20;1.10;;;21.80;92.20;;;;;;5072395;28;20472;-65
2022/08/07 06:04:56;;;;;;;1.50;1.40;;;22.00;91.80;;;;;;5072270;28;20398;-65
2022/08/07 06:07:21;;;;;;;1.53;1.20;;;21.20;92.50;;;;;;5072302;28;20417;-65
2022/08/07 06:09:47;;;;;;;1.50;1.40;;;22.10;92.70;;;;;;5072175;28;20476;-65
2022/08/07 06:12:13;;;;;;;1.67;1.50;;;22.50;90.20;;;;;;5072330;28;20245;-64
2022/08/07 06:14:39;;;;;;;1.40;1.30;;;22.50;89.40;;;;;;5071867;28;20538;-64
2022/08/07 06:17:05;;;;;;;1.60;1.47;;;22.50;89.70;;;;;;5071828;28;20473;-64
2022/08/07 06:19:32;;;;;;;3.67;2.07;;;23.00;86.60;;;;;;5072095;28;20225;-64
2022/08/07 06:21:59;;;;;;;1.37;1.10;;;23.90;85.50;;;;;;5072109;28;20780;-64
2022/08/07 06:24:25;;;;;;;1.63;1.07;;;23.80;81.80;;;;;;5072166;28;20465;-64
2022/08/07 06:26:51;;;;;;;1.80;1.40;;;23.80;81.80;;;;;;5071653;28;20877;-63
2022/08/07 06:29:16;;;;;;;4.93;1.70;;;24.10;80.90;;;;;;5071819;28;20652;-65
2022/08/07 06:31:42;;;;;;;1.43;1.10;;;24.80;81.10;;;;;;5076511;28;20647;-64
2022/08/07 06:34:07;;;;;;;1.30;1.20;;;24.30;77.80;;;;;;5084408;28;20189;-64
2022/08/07 06:36:33;;;;;;;1.63;1.20;;;25.20;75.40;;;;;;5071455;28;20197;-64
2022/08/07 06:38:58;;;;;;;2.23;1.40;;;25.20;73.80;;;;;;5071931;28;20196;-64
2022/08/07 06:41:48;;;;;;;1.83;1.27;;;26.20;71.40;;;;;;5071543;28;20263;-64
2022/08/07 06:44:15;;;;;;;1.47;1.30;;;25.50;72.30;;;;;;5071483;28;20648;-64
2022/08/07 06:46:41;;;;;;;1.40;1.30;;;24.20;74.40;;;;;;5071491;28;20412;-65
2022/08/07 06:49:07;;;;;;;1.97;1.47;;;23.90;75.40;;;;;;5071466;28;20424;-64
2022/08/07 06:51:34;;;;;;;1.47;1.37;;;24.90;74.00;;;;;;5071847;28;20597;-64
2022/08/07 06:54:02;;;;;;;1.43;1.17;;;24.60;74.80;;;;;;5072048;28;20177;-64
2022/08/07 06:56:39;;;;;;;2.93;1.20;;;24.70;71.50;;;;;;5071393;28;20408;-64
2022/08/07 06:59:11;;;;;;;1.37;1.17;;;24.70;71.40;;;;;;5071566;28;20821;-64
2022/08/07 07:01:38;;;;;;;1.77;1.30;;;25.20;70.30;;;;;;5071851;28;20435;-64
2022/08/07 07:04:04;;;;;;;3.43;1.40;;;26.50;65.90;;;;;;5071643;28;20499;-65
2022/08/07 07:06:31;;;;;;;1.57;1.47;;;25.50;67.20;;;;;;5077590;28;20936;-64
2022/08/07 07:09:24;;;;;;;1.30;1.20;;;25.50;67.80;;;;;;5078383;28;20416;-64
2022/08/07 07:12:12;;;;;;;2.30;1.50;;;26.10;66.00;;;;;;5071657;28;20543;-64
2022/08/07 07:15:03;;;;;;;1.30;1.20;;;25.80;64.40;;;;;;5071304;28;20436;-64
2022/08/07 07:17:48;;;;;;;3.17;1.20;;;26.70;63.30;;;;;;5071294;28;20546;-64
2022/08/07 07:20:19;;;;;;;1.57;1.17;;;26.40;62.80;;;;;;5071332;28;20421;-64
2022/08/07 07:22:46;;;;;;;1.77;1.67;;;27.50;60.00;;;;;;5071501;28;20408;-64
2022/08/07 07:25:14;;;;;;;3.03;1.40;;;27.80;59.00;;;;;;5071265;28;20499;-65
2022/08/07 07:27:46;;;;;;;2.10;1.87;;;27.30;58.70;;;;;;5071442;28;20404;-65
2022/08/07 07:30:12;;;;;;;1.37;1.27;;;27.20;58.60;;;;;;5071466;28;20448;-64
2022/08/07 07:32:40;;;;;;;2.00;1.80;;;24.70;64.70;;;;;;5071561;28;20424;-65
2022/08/07 07:35:09;;;;;;;1.90;1.40;;;24.70;65.30;;;;;;5074532;28;20496;-64
2022/08/07 07:37:36;;;;;;;2.03;1.30;;;24.60;69.20;;;;;;5075177;28;20461;-64
2022/08/07 07:40:06;;;;;;;1.67;1.27;;;26.70;61.90;;;;;;5075039;28;20424;-65
2022/08/07 07:42:33;;;;;;;1.50;1.40;;;27.90;58.60;;;;;;5074909;28;20400;-65
2022/08/07 07:45:02;;;;;;;1.20;1.10;;;27.60;58.50;;;;;;5074699;28;20408;-64
2022/08/07 07:47:30;;;;;;;2.13;1.53;;;27.10;59.30;;;;;;5074895;28;20408;-65
2022/08/07 07:49:57;;;;;;;1.93;1.30;;;26.80;59.90;;;;;;5074782;28;20420;-64
2022/08/07 07:52:24;;;;;;;3.27;1.30;;;25.70;62.10;;;;;;5074964;28;20411;-64
2022/08/07 07:54:52;;;;;;;1.97;1.60;;;24.90;64.20;;;;;;5074937;28;20400;-64
2022/08/07 07:57:21;;;;;;;1.53;1.43;;;25.70;62.70;;;;;;5074535;28;20479;-64
2022/08/07 07:59:50;;;;;;;1.57;1.20;;;24.80;63.20;;;;;;5074707;28;20447;-64
2022/08/07 08:02:18;;;;;;;1.17;1.07;;;26.10;63.40;;;;;;5074581;28;20461;-64
2022/08/07 08:04:44;;;;;;;2.13;1.60;;;24.70;64.80;;;;;;5074686;28;20424;-67
2022/08/07 08:07:11;;;;;;;1.37;1.27;;;24.70;67.10;;;;;;5074587;28;20917;-65
2022/08/07 08:09:38;;;;;;;2.03;1.70;;;25.00;66.80;;;;;;5074325;28;20464;-65
2022/08/07 08:12:05;;;;;;;1.87;1.50;;;26.70;61.50;;;;;;5074130;28;20404;-65
2022/08/07 08:14:34;;;;;;;1.50;1.40;;;26.70;60.10;;;;;;5073864;28;20450;-64
2022/08/07 08:17:01;;;;;;;2.07;1.87;;;27.10;58.90;;;;;;5074503;28;20447;-65
2022/08/07 08:19:30;;;;;;;1.97;1.00;;;26.20;61.20;;;;;;5066128;28;20431;-65
2022/08/07 08:27:33;;;;;;;1.40;1.27;;;24.90;60.00;;;;;;5074941;28;20408;-64
2022/08/07 08:30:10;;;;;;;1.30;1.10;;;24.90;61.00;;;;;;5073851;28;20420;-65
2022/08/07 08:32:40;;;;;;;1.03;0.97;;;24.90;62.90;;;;;;5073878;28;20956;-65
2022/08/07 08:35:09;;;;;;;1.87;1.30;;;24.50;63.70;;;;;;5073946;28;20443;-65
2022/08/07 08:37:36;;;;;;;1.40;1.30;;;25.80;61.10;;;;;;5074025;28;20455;-65
2022/08/07 08:40:08;;;;;;;2.50;1.53;;;26.00;60.70;;;;;;5073587;28;20451;-65
2022/08/07 08:42:51;;;;;;;2.60;1.37;;;27.20;58.70;;;;;;5073747;28;20416;-65
2022/08/07 08:45:41;;;;;;;1.77;1.00;;;27.20;58.00;;;;;;5073360;28;20882;-64
2022/08/07 08:48:44;;;;;;;1.43;1.13;;;27.30;57.20;;;;;;5073428;28;20404;-65
2022/08/07 08:51:26;;;;;;;2.43;1.73;;;26.40;58.60;;;;;;5073649;28;20412;-66
2022/08/07 08:53:59;;;;;;;1.40;1.30;;;26.70;58.90;;;;;;5055537;28;20451;-65
2022/08/07 08:56:29;;;;;;;1.00;0.93;;;26.10;59.30;;;;;;5073064;28;20474;-65
2022/08/07 08:59:00;;;;;;;2.30;1.33;;;25.60;60.00;;;;;;5073380;28;20447;-64
2022/08/07 09:01:51;;;;;;;1.37;1.20;;;26.50;58.00;;;;;;5073393;28;20396;-65
2022/08/07 09:04:37;;;;;;;1.83;1.53;;;26.20;58.40;;;;;;5073207;28;20799;-64
2022/08/07 09:07:35;;;;;;;2.07;1.70;;;26.50;59.30;;;;;;5073621;28;20408;-64
2022/08/07 09:10:13;;;;;;;1.57;1.47;;;26.60;58.90;;;;;;5073043;28;20816;-64
2022/08/07 09:13:18;;;;;;;1.90;1.20;;;26.50;58.70;;;;;;5073402;28;20405;-64
2022/08/07 09:15:53;;;;;;;2.47;1.20;;;27.00;57.30;;;;;;5072979;28;20415;-64
2022/08/07 09:19:06;;;;;;;1.43;1.20;;;26.30;58.20;;;;;;5072763;28;20473;-65
2022/08/07 09:21:41;;;;;;;2.67;1.80;;;24.90;58.40;;;;;;4972178;28;20408;-64
2022/08/07 09:24:33;;;;;;;2.30;1.30;;;25.60;58.80;;;;;;4971829;28;20475;-64
2022/08/07 09:27:15;;;;;;;1.07;0.97;;;26.70;58.40;;;;;;5049771;28;20408;-64
2022/08/07 09:29:51;;;;;;;1.40;1.30;;;27.40;57.60;;;;;;5073158;28;20424;-65
2022/08/07 09:32:40;;;;;;;1.43;1.20;;;28.00;55.60;;;;;;5072797;28;20446;-65
2022/08/07 09:35:34;;;;;;;1.57;1.30;;;26.60;56.00;;;;;;5072261;28;20831;-65
2022/08/07 09:38:14;;;;;;;3.20;2.10;;;27.20;56.20;;;;;;5072853;28;20459;-65
2022/08/07 09:41:04;;;;;;;1.47;1.37;;;26.30;58.20;;;;;;5072729;28;20431;-65
2022/08/07 09:43:48;;;;;;;1.20;1.10;;;26.10;57.90;;;;;;5052795;28;20416;-65
2022/08/07 09:46:27;;;;;;;2.33;1.27;;;25.80;57.20;;;;;;5052472;28;20484;-65
2022/08/07 09:49:08;;;;;;;1.77;1.17;;;27.60;54.10;;;;;;5052811;28;20890;-65
2022/08/07 09:51:54;;;;;;;1.37;1.27;;;28.40;53.00;;;;;;5052704;28;20400;-65
2022/08/07 09:54:32;;;;;;;1.13;1.03;;;28.60;52.80;;;;;;5053000;28;20795;-65
2022/08/07 09:57:28;;;;;;;1.70;1.60;;;28.60;52.00;;;;;;5066753;28;20494;-65
2022/08/07 10:00:13;;;;;;;2.83;2.00;;;27.30;53.40;;;;;;5055107;28;20514;-65
2022/08/07 10:02:51;;;;;;;3.27;2.70;;;26.90;55.40;;;;;;5072939;28;20420;-65
2022/08/07 10:05:47;;;;;;;3.23;2.93;;;26.90;54.10;;;;;;5072222;28;20455;-65
2022/08/07 10:08:31;;;;;;;2.40;1.33;;;26.30;55.00;;;;;;5071979;28;20482;-64
2022/08/07 10:11:13;;;;;;;2.40;1.20;;;25.40;56.10;;;;;;5072592;28;20893;-65
2022/08/07 10:14:08;;;;;;;1.10;0.97;;;25.50;55.60;;;;;;5072456;28;20454;-64
2022/08/07 10:17:07;;;;;;;1.90;1.10;;;24.60;56.20;;;;;;5020540;28;20419;-64
2022/08/07 10:19:39;;;;;;;1.50;1.40;;;24.10;57.40;;;;;;5071962;28;20465;-65
2022/08/07 10:22:47;;;;;;;1.40;1.30;;;23.80;58.60;;;;;;5072155;28;20485;-65
2022/08/07 10:25:48;;;;;;;1.17;1.00;;;25.10;56.40;;;;;;5066842;28;20901;-64
2022/08/07 10:28:51;;;;;;;2.17;1.97;;;24.60;57.30;;;;;;5072148;28;20900;-64
2022/08/07 10:32:17;;;;;;;1.87;1.20;;;24.60;58.20;;;;;;5071832;28;20400;-65
2022/08/07 10:35:09;;;;;;;2.57;1.43;;;24.50;58.30;;;;;;4970612;28;20412;-67
2022/08/07 10:37:58;;;;;;;2.93;2.30;;;24.80;58.20;;;;;;4963493;28;20464;-65
2022/08/07 10:40:30;;;;;;;2.30;2.10;;;24.40;58.40;;;;;;5039086;28;20438;-67
2022/08/07 10:43:13;;;;;;;1.10;0.90;;;25.10;57.20;;;;;;5071371;28;20985;-65
2022/08/07 10:45:45;;;;;;;2.00;1.20;;;24.40;56.50;;;;;;5071545;28;20598;-67
2022/08/07 10:48:32;;;;;;;1.40;1.30;;;24.50;57.00;;;;;;5087326;28;20889;-66
2022/08/07 10:51:30;;;;;;;1.80;1.10;;;25.00;57.30;;;;;;5091892;28;20448;-65
2022/08/07 10:54:12;;;;;;;1.67;1.00;;;24.20;56.20;;;;;;5044725;28;20420;-65
2022/08/07 10:56:58;;;;;;;2.93;1.10;;;24.10;56.70;;;;;;5079134;28;20463;-66
2022/08/07 10:59:58;;;;;;;3.17;1.30;;;24.80;56.50;;;;;;5071728;28;20643;-67
2022/08/07 11:02:40;;;;;;;2.30;1.10;;;25.70;56.90;;;;;;5075525;22;20512;-73
2022/08/07 11:05:27;;;;;;;1.00;0.90;;;25.50;55.00;;;;;;5049038;28;20403;-73
2022/08/07 11:08:07;;;;;;;1.27;1.13;;;25.40;54.40;;;;;;5034831;28;20419;-74
2022/08/07 11:10:54;;;;;;;1.67;1.00;;;24.70;55.20;;;;;;5056599;28;20495;-74
2022/08/07 11:13:46;;;;;;;1.87;1.53;;;24.90;57.00;;;;;;5058187;28;20456;-74
2022/08/07 11:16:36;;;;;;;1.60;1.23;;;25.70;56.70;;;;;;5037783;28;20447;-74
2022/08/07 11:19:06;;;;;;;2.80;1.53;;;25.40;56.30;;;;;;5056042;28;20508;-75
2022/08/07 11:21:41;;;;;;;1.77;1.10;;;26.00;55.70;;;;;;5056029;28;20920;-75
2022/08/07 11:24:15;;;;;;;3.30;2.47;;;24.70;56.00;;;;;;5056193;28;20415;-74
2022/08/07 11:26:52;;;;;;;10.97;4.97;;;24.60;57.40;;;;;;5055883;28;20389;-74
2022/08/07 11:29:37;;;;;;;1.57;1.47;;;25.40;56.30;;;;;;5055942;28;20767;-74
2022/08/07 11:32:04;;;;;;;1.53;1.43;;;25.10;55.90;;;;;;5055630;28;20427;-74
2022/08/07 11:34:40;;;;;;;2.23;1.90;;;25.10;56.30;;;;;;5055049;28;20416;-73
2022/08/07 11:37:16;;;;;;;1.43;1.33;;;24.70;56.70;;;;;;5055738;28;20444;-74
2022/08/07 11:40:09;;;;;;;1.30;1.20;;;24.90;57.50;;;;;;5056100;28;20403;-74
2022/08/07 11:42:57;;;;;;;1.50;1.40;;;24.80;56.40;;;;;;5055972;28;20419;-74
2022/08/07 11:46:08;;;;;;;4.30;1.27;;;25.40;56.10;;;;;;5048714;28;20484;-73
2022/08/07 11:49:11;;;;;;;1.57;1.10;;;25.80;55.60;;;;;;5040018;28;20388;-74
2022/08/07 11:51:59;;;;;;;2.23;1.40;;;25.30;55.70;;;;;;5035228;28;20419;-74
2022/08/07 11:54:49;;;;;;;4.20;1.70;;;25.20;56.70;;;;;;5034850;28;20399;-73
2022/08/07 11:57:31;;;;;;;1.13;0.97;;;25.10;55.90;;;;;;5035331;28;20464;-74
2022/08/07 12:00:33;;;;;;;3.83;1.70;;;25.40;56.00;;;;;;5017339;28;20416;-74
2022/08/07 12:03:25;;;;;;;1.30;1.00;;;24.80;55.90;;;;;;5021867;28;20504;-74
2022/08/07 12:06:33;;;;;;;1.67;1.10;;;25.30;55.50;;;;;;5034601;28;20469;-74
2022/08/07 12:09:13;;;;;;;1.37;1.23;;;25.40;55.20;;;;;;5054721;28;20915;-73
2022/08/07 12:12:04;;;;;;;1.30;1.20;;;25.20;55.00;;;;;;5054674;28;20941;-74
2022/08/07 12:14:41;;;;;;;1.57;1.20;;;25.50;54.90;;;;;;5052291;28;20507;-74
2022/08/07 12:17:11;;;;;;;1.60;1.00;;;25.60;55.10;;;;;;5054160;28;20508;-74
2022/08/07 12:20:02;;;;;;;3.90;1.70;;;25.70;54.20;;;;;;5053890;28;20755;-74
2022/08/07 12:22:43;;;;;;;1.10;1.00;;;25.70;54.50;;;;;;5054288;28;20424;-74
2022/08/07 12:25:54;;;;;;;1.30;1.07;;;25.50;54.50;;;;;;5036607;28;20893;-75
2022/08/07 12:28:29;;;;;;;1.80;1.20;;;25.50;54.80;;;;;;5054700;28;20536;-73
2022/08/07 12:31:00;;;;;;;1.50;1.10;;;25.50;54.40;;;;;;5054601;28;20506;-74
2022/08/07 12:33:30;;;;;;;2.83;1.30;;;25.30;54.30;;;;;;5054498;28;20451;-74
2022/08/07 12:35:57;;;;;;;1.77;1.10;;;25.20;54.70;;;;;;5054151;28;20417;-74
2022/08/07 12:38:25;;;;;;;1.67;1.57;;;25.10;54.30;;;;;;5054433;28;20441;-74
2022/08/07 12:40:52;;;;;;;1.57;1.47;;;24.60;55.20;;;;;;5054543;28;20462;-73
2022/08/07 12:43:22;;;;;;;8.27;6.63;;;24.70;55.10;;;;;;5060553;28;20404;-73
2022/08/07 12:46:13;;;;;;;2.40;1.80;;;24.90;55.80;;;;;;5065979;28;20398;-73
2022/08/07 12:49:03;;;;;;;1.53;1.10;;;25.20;55.10;;;;;;5066181;28;20402;-73
2022/08/07 12:51:40;;;;;;;2.40;1.37;;;25.60;54.50;;;;;;5068303;28;20450;-73
2022/08/07 12:54:19;;;;;;;2.23;1.30;;;25.10;54.50;;;;;;5070610;28;20956;-73
2022/08/07 12:56:50;;;;;;;2.17;1.20;;;25.20;54.70;;;;;;5043308;28;20881;-74
2022/08/07 12:59:24;;;;;;;3.47;1.67;;;25.00;54.50;;;;;;5053999;28;20410;-75
2022/08/07 13:02:11;;;;;;;2.30;1.63;;;25.00;54.80;;;;;;5053444;28;20443;-73
2022/08/07 13:04:46;;;;;;;3.33;1.50;;;24.80;54.90;;;;;;5053467;28;20451;-73
2022/08/07 13:07:33;;;;;;;2.73;1.90;;;24.80;54.80;;;;;;5053677;28;20493;-73
2022/08/07 13:10:36;;;;;;;1.97;1.80;;;24.90;54.80;;;;;;5053917;28;20404;-72
2022/08/07 13:13:32;;;;;;;0.80;0.80;;;24.90;54.80;;;;;;5050743;28;20450;-73
2022/08/07 13:16:09;;;;;;;1.47;1.30;;;24.70;54.60;;;;;;5053168;28;20412;-73
2022/08/07 13:19:07;;;;;;;1.47;1.30;;;24.30;55.50;;;;;;5053179;28;20460;-73
2022/08/07 13:21:48;;;;;;;1.70;1.23;;;24.10;55.80;;;;;;5053619;28;20483;-73
2022/08/07 13:24:17;;;;;;;3.00;2.00;;;23.90;55.80;;;;;;5053866;28;20403;-73
2022/08/07 13:26:54;;;;;;;1.43;1.23;;;23.70;56.30;;;;;;5053633;28;20459;-74
2022/08/07 13:29:45;;;;;;;1.40;1.23;;;24.10;56.80;;;;;;5053661;28;20496;-74